Galva, IL

10:02 AM CST on December 06, 2016 (GMT -0600)
Collister Farms | | Change Station
Active Advisory: Dense Fog Advisory

Elev 751 ft 41.10 °N, 90.00 °W | Updated 32 seconds ago

Overcast
Overcast
33.5 °F
Feels Like 28 °F
N
6.0
Wind Variable Wind from West

Today
High -- | Low -- °F
--% Chance of Precip.
Yesterday
High -- | Low -- °F
Precip. -- in
Pressure 29.84 in
Visibility 1.2 miles
Clouds Overcast 300 ft
Windchill 28 °F
Dew Point 32 °F
Humidity 95%
Rainfall 0.00 in
Snow Depth Not available.
7:11 AM 4:31 PM
Waxing Crescent, 43% visible
METAR KGBG 061555Z AUTO 28005KT 1 1/4SM BR OVC003 01/01 A2984 RMK AO2 T00110011
Pressure 29.84 in
Visibility 1.2 miles
Clouds Overcast 300 ft
Windchill 28 °F
Dew Point 32 °F
Humidity 95%
Rainfall 0.00 in
Snow Depth Not available.
7:11 AM 4:31 PM
Waxing Crescent, 43% visible
METAR KGBG 061555Z AUTO 28005KT 1 1/4SM BR OVC003 01/01 A2984 RMK AO2 T00110011

10-Day Weather Forecast

Almanac

Astronomy

Dec. 06, 2016 Rise Set
Actual Time
Civil Twilight
Nautical Twilight
Astronomical Twilight
Moon
Length of Visible Light
Length of Day
Tomorrow will be .
, % of the Moon is Illuminated

Today's Extremes

State Highs State Lows

Community

WunderPhotos

Upload Photos

1,955,965 photos uploaded!

WunderBlog® & News

Nearby

Air Quality

  Air Quality AQ Index Pollutant
Not available.

Snow Depth

Station Depth Elevation

Earthquake Activity

City Distance Mag. Time & Date
Minimum magnitude displayed is 2.5.

Coastal Water Temperatures

Place Temperature

Stations

Nearby Weather Stations

Station Location Temp. Windchill Dew Point Humidity Wind Precip. Elev Updated Type
                   

Watches & Warnings

Dense Fog Advisory
Issued: 9:56 AM CST Dec. 6, 2016 – National Weather Service

... Dense fog advisory now in effect until 11 am CST this
morning...

* timing... until late this morning.

* Impacts... visibilities of a quarter of a mile or less were
widespread ahead of a cold front nearing the Mississippi River.
Conditions will rapidly improve from west to east behind the
front by noon.

Precautionary/preparedness actions...

A dense fog advisory means visibilities will frequently be
reduced to less than one quarter mile. If driving... slow down...
use your headlights... and leave plenty of distance ahead of you.



Haase